Time;durP1;ratioP1;P1;durP2;ratioP2;P2;SDS_P1;SDS_P2;PMS_P1;PMS_P2;Temp;Humidity;BMP_temperature;BMP_pressure;BME280_temperature;BME280_humidity;BME280_pressure;Samples;Min_cycle;Max_cycle;Signal;HPM_P1;HPM_P2
2023/07/06 00:00:54;;;;;;;;;10.00;6.00;;;;;19.70;65.28;100980.28;4857158;29;45390;-73
2023/07/06 00:03:20;;;;;;;;;8.67;6.67;;;;;19.67;65.54;100985.72;4856264;29;45760;-73
2023/07/06 00:05:46;;;;;;;;;5.00;5.00;;;;;19.67;65.75;100988.41;4842761;29;45407;-73
2023/07/06 00:08:13;;;;;;;;;7.00;7.00;;;;;19.66;65.26;100992.03;4842853;29;45697;-72
2023/07/06 00:10:42;;;;;;;;;10.67;7.00;;;;;19.61;65.17;100982.25;4842934;29;45470;-73
2023/07/06 00:13:07;;;;;;;;;8.33;8.33;;;;;19.56;65.98;100985.06;4857614;29;45334;-73
2023/07/06 00:15:34;;;;;;;;;9.00;8.00;;;;;19.51;65.75;100974.34;4856569;29;46699;-73
2023/07/06 00:18:03;;;;;;;;;8.00;7.00;;;;;19.55;66.17;100989.56;4842682;29;45405;-73
2023/07/06 00:20:38;;;;;;;;;9.00;7.33;;;;;19.49;66.12;100995.06;4842407;29;45412;-73
2023/07/06 00:23:08;;;;;;;;;8.33;6.33;;;;;19.52;66.40;100997.69;4842499;29;45467;-73
2023/07/06 00:25:34;;;;;;;;;4.33;4.33;;;;;19.38;66.35;100995.25;4855631;29;47393;-72
2023/07/06 00:28:03;;;;;;;;;8.00;8.00;;;;;19.37;67.36;100996.19;4856453;29;45510;-73
2023/07/06 00:30:53;;;;;;;;;8.33;7.67;;;;;19.31;67.36;101001.69;4841723;29;45409;-73
2023/07/06 00:33:20;;;;;;;;;8.00;7.00;;;;;19.34;67.62;100998.91;4842140;29;45520;-72
2023/07/06 00:35:47;;;;;;;;;7.00;5.67;;;;;19.30;67.37;100993.63;4841825;29;45479;-72
2023/07/06 00:38:15;;;;;;;;;8.33;7.67;;;;;19.32;67.35;100999.88;4855345;29;45792;-73
2023/07/06 00:40:44;;;;;;;;;8.00;8.00;;;;;19.27;67.71;100999.97;4838457;29;45545;-73
2023/07/06 00:43:17;;;;;;;;;6.33;5.33;;;;;19.18;68.29;100994.72;4841778;29;45389;-73
2023/07/06 00:45:44;;;;;;;;;6.00;6.00;;;;;19.19;68.66;100993.81;4841399;29;45429;-73
2023/07/06 00:48:26;;;;;;;;;7.33;7.00;;;;;19.17;68.44;100992.97;4841907;29;45401;-73
2023/07/06 00:51:02;;;;;;;;;7.33;7.00;;;;;19.15;69.47;101003.75;4842205;29;45455;-73
2023/07/06 00:53:34;;;;;;;;;6.00;6.00;;;;;19.12;69.20;101008.31;4840189;29;45347;-73
2023/07/06 00:56:01;;;;;;;;;12.67;8.00;;;;;19.03;69.76;101000.38;4841128;29;46025;-73
2023/07/06 00:58:48;;;;;;;;;7.00;6.00;;;;;19.01;69.85;101000.41;4841233;29;45515;-73
2023/07/06 01:01:17;;;;;;;;;6.33;6.33;;;;;18.91;70.09;100996.97;4840684;29;45580;-73
2023/07/06 01:03:47;;;;;;;;;7.00;6.00;;;;;18.96;70.11;101000.47;4841815;29;45588;-72
2023/07/06 01:06:19;;;;;;;;;5.00;5.00;;;;;18.97;69.84;101002.25;4840880;29;45746;-72
2023/07/06 01:08:48;;;;;;;;;6.00;6.00;;;;;18.90;70.02;101008.66;4841052;29;45446;-72
2023/07/06 01:11:14;;;;;;;;;8.00;6.00;;;;;18.87;70.07;101011.41;4855777;29;45360;-73
2023/07/06 01:13:50;;;;;;;;;4.33;4.33;;;;;18.93;69.82;101002.34;4839859;29;45457;-73
2023/07/06 01:16:18;;;;;;;;;4.67;4.33;;;;;18.80;70.50;101001.63;4841080;29;45663;-72
2023/07/06 01:19:11;;;;;;;;;5.33;5.33;;;;;18.88;71.35;101001.53;4841655;29;45407;-72
2023/07/06 01:22:04;;;;;;;;;7.00;7.00;;;;;18.80;71.14;101007.03;4855388;29;45517;-73
2023/07/06 01:25:00;;;;;;;;;5.00;5.00;;;;;18.84;70.72;101000.66;4855141;29;45315;-73
2023/07/06 01:27:42;;;;;;;;;4.67;4.00;;;;;18.81;71.02;101002.56;4841315;29;45502;-72
2023/07/06 01:30:54;;;;;;;;;7.00;7.00;;;;;18.81;71.22;101003.44;4841382;29;45498;-73
2023/07/06 01:33:31;;;;;;;;;5.00;5.00;;;;;18.75;71.83;101008.88;4832447;29;45427;-73
2023/07/06 01:36:43;;;;;;;;;5.00;5.00;;;;;18.73;71.68;101008.91;4822753;29;45371;-72
2023/07/06 01:39:27;;;;;;;;;5.67;4.00;;;;;18.68;72.23;100999.09;4782853;29;47003;-72
2023/07/06 01:42:19;;;;;;;;;5.33;5.00;;;;;18.67;72.16;100992.81;4768270;29;45654;-73
2023/07/06 01:44:48;;;;;;;;;7.50;5.00;;;;;18.63;72.52;100996.47;4768273;29;45411;-72
2023/07/06 01:47:19;;;;;;;;;5.33;5.33;;;;;18.67;72.32;100991.94;4783568;29;45544;-73
2023/07/06 01:49:46;;;;;;;;;5.33;5.33;;;;;18.58;72.92;100985.78;4768200;29;47210;-72
2023/07/06 01:52:33;;;;;;;;;7.00;7.00;;;;;18.71;71.90;100994.56;4767773;29;45430;-72
2023/07/06 01:55:25;;;;;;;;;5.33;4.67;;;;;18.69;71.92;100990.13;4783312;29;45528;-73
2023/07/06 01:58:04;;;;;;;;;5.00;4.67;;;;;18.68;72.24;100982.94;4783398;29;45513;-73
2023/07/06 02:00:32;;;;;;;;;7.67;6.00;;;;;18.55;72.86;100983.13;4767902;29;47402;-72
2023/07/06 02:03:00;;;;;;;;;5.67;5.67;;;;;18.57;73.45;100984.00;4767747;29;45746;-73
2023/07/06 02:05:27;;;;;;;;;7.00;5.00;;;;;18.48;73.42;100992.22;4783139;29;45445;-73
2023/07/06 02:07:52;;;;;;;;;4.00;4.00;;;;;18.45;73.24;100986.00;4768871;29;46052;-73
2023/07/06 02:10:19;;;;;;;;;4.67;4.67;;;;;18.48;73.35;100991.31;4810977;29;45455;-73
2023/07/06 02:12:47;;;;;;;;;6.33;4.00;;;;;18.40;74.39;100983.38;4822673;29;46057;-73
2023/07/06 02:15:19;;;;;;;;;6.00;6.00;;;;;18.47;74.83;100973.38;4822597;29;45777;-73
2023/07/06 02:17:55;;;;;;;;;5.00;4.00;;;;;18.30;74.73;100969.16;4822291;29;45494;-72
2023/07/06 02:20:21;;;;;;;;;7.00;7.00;;;;;18.30;75.42;100985.31;4822429;29;45435;-72
2023/07/06 02:22:47;;;;;;;;;12.00;6.67;;;;;18.32;75.47;100979.88;4822067;29;45409;-72
2023/07/06 02:25:13;;;;;;;;;6.33;5.00;;;;;18.28;75.21;100978.13;4822896;29;45604;-72
2023/07/06 02:27:38;;;;;;;;;5.00;5.00;;;;;18.27;75.09;100977.25;4826895;29;45528;-73
2023/07/06 02:30:06;;;;;;;;;7.00;7.00;;;;;18.37;75.60;100983.41;4826775;29;47184;-73
2023/07/06 02:32:32;;;;;;;;;6.67;5.00;;;;;18.30;75.20;100982.59;4812435;29;45498;-73
2023/07/06 02:34:58;;;;;;;;;8.33;6.67;;;;;18.22;75.58;100976.44;4828346;29;45429;-72
2023/07/06 02:37:24;;;;;;;;;7.00;7.00;;;;;18.22;75.93;100975.53;4828730;29;45431;-72
2023/07/06 02:39:50;;;;;;;;;9.00;8.00;;;;;18.26;76.01;100979.94;4811636;29;46374;-72
2023/07/06 02:42:16;;;;;;;;;5.33;5.00;;;;;18.27;75.45;100987.13;4828126;29;45511;-73
2023/07/06 02:44:43;;;;;;;;;2.33;2.33;;;;;18.25;75.53;100987.16;4811396;29;45706;-73
2023/07/06 02:47:09;;;;;;;;;7.67;6.00;;;;;18.20;75.83;100972.88;4811934;29;45498;-72
2023/07/06 02:49:35;;;;;;;;;5.67;4.00;;;;;18.24;75.87;100992.53;4827966;29;45582;-72
2023/07/06 02:52:02;;;;;;;;;8.00;5.00;;;;;18.29;75.93;100986.19;4811870;29;45465;-72
2023/07/06 02:54:27;;;;;;;;;9.67;7.00;;;;;18.17;75.98;100998.00;4828251;29;45450;-73
2023/07/06 02:56:55;;;;;;;;;7.33;6.00;;;;;18.16;76.14;100988.16;4829272;29;45437;-73
2023/07/06 02:59:21;;;;;;;;;7.00;6.00;;;;;18.13;76.10;100987.31;4827539;29;47155;-73
2023/07/06 03:01:49;;;;;;;;;6.33;5.67;;;;;18.13;75.87;100998.09;4828575;29;45962;-73
2023/07/06 03:04:17;;;;;;;;;5.33;5.33;;;;;18.12;76.41;100989.13;4828741;29;45560;-74
2023/07/06 03:06:43;;;;;;;;;7.00;5.33;;;;;18.07;76.09;100988.28;4828608;29;45754;-73
2023/07/06 03:09:09;;;;;;;;;7.67;6.33;;;;;18.07;75.78;100987.41;4827907;29;45505;-73
2023/07/06 03:11:36;;;;;;;;;6.00;4.33;;;;;18.13;76.10;101001.66;4829018;29;45611;-72
2023/07/06 03:14:03;;;;;;;;;3.00;3.00;;;;;18.04;76.50;100993.72;4828911;29;45664;-72
2023/07/06 03:16:54;;;;;;;;;8.00;6.00;;;;;18.15;76.75;101001.66;4812210;29;45501;-72
2023/07/06 03:19:20;;;;;;;;;5.33;5.33;;;;;17.99;76.93;101009.00;4810974;29;48068;-73
2023/07/06 03:21:46;;;;;;;;;7.00;5.67;;;;;17.96;77.24;100995.63;4828198;29;45493;-72
2023/07/06 03:24:12;;;;;;;;;6.67;6.33;;;;;17.90;77.11;100995.69;4828478;29;45437;-73
2023/07/06 03:26:40;;;;;;;;;9.00;9.00;;;;;17.87;77.84;100993.03;4811523;29;45568;-72
2023/07/06 03:29:08;;;;;;;;;7.00;7.00;;;;;17.90;77.65;100995.69;4826737;29;46778;-72
2023/07/06 03:31:33;;;;;;;;;6.67;6.00;;;;;17.80;77.85;100992.19;4828128;29;45395;-72
2023/07/06 03:34:00;;;;;;;;;8.33;5.00;;;;;17.86;78.38;100991.25;4828535;29;45320;-72
2023/07/06 03:36:25;;;;;;;;;5.00;5.00;;;;;17.78;78.30;100999.38;4828781;29;45465;-73
2023/07/06 03:38:51;;;;;;;;;8.00;8.00;;;;;17.68;78.28;100982.44;4826047;29;46381;-72
2023/07/06 03:41:17;;;;;;;;;4.00;4.00;;;;;17.79;78.44;100996.69;4812091;29;45739;-73
2023/07/06 03:43:44;;;;;;;;;4.67;4.67;;;;;17.79;78.30;101003.84;4826433;29;45497;-73
2023/07/06 03:46:09;;;;;;;;;5.67;5.00;;;;;17.75;78.30;101000.31;4825824;29;45405;-71
2023/07/06 03:48:36;;;;;;;;;4.00;4.00;;;;;17.77;78.82;100994.88;4825023;29;45397;-72
2023/07/06 03:51:03;;;;;;;;;5.33;5.33;;;;;17.77;78.70;100998.50;4826074;29;45848;-72
2023/07/06 03:53:30;;;;;;;;;7.33;5.67;;;;;17.74;78.48;101003.91;4826654;29;45430;-72
2023/07/06 03:55:55;;;;;;;;;7.67;7.00;;;;;17.74;78.65;101003.91;4826535;29;45435;-72
2023/07/06 03:58:21;;;;;;;;;6.67;5.67;;;;;17.75;78.67;100999.41;4825736;29;45986;-71
2023/07/06 04:00:47;;;;;;;;;5.67;5.67;;;;;17.74;78.88;100998.53;4838606;29;45524;-73
2023/07/06 04:03:13;;;;;;;;;6.67;6.67;;;;;17.74;78.82;101000.31;4823667;29;45409;-72
2023/07/06 04:05:44;;;;;;;;;5.00;5.00;;;;;17.78;78.95;101000.25;4824572;29;45471;-72
2023/07/06 04:08:16;;;;;;;;;4.00;4.00;;;;;17.84;78.58;101002.03;4823705;29;46199;-72
2023/07/06 04:10:44;;;;;;;;;4.33;4.33;;;;;17.83;79.14;100999.31;4825905;29;45832;-72
2023/07/06 04:13:14;;;;;;;;;5.67;5.67;;;;;17.77;78.75;101003.88;4825326;29;45427;-72
2023/07/06 04:15:44;;;;;;;;;6.00;5.00;;;;;17.83;79.18;101002.00;4824059;29;45465;-73
2023/07/06 04:18:15;;;;;;;;;5.33;5.00;;;;;17.79;78.96;101007.44;4838960;29;48079;-73
2023/07/06 04:20:41;;;;;;;;;7.00;6.00;;;;;17.78;78.90;101005.63;4823290;29;45779;-73
2023/07/06 04:23:09;;;;;;;;;6.67;6.33;;;;;17.76;78.88;101002.06;4824775;29;45505;-72
2023/07/06 04:25:35;;;;;;;;;6.67;6.33;;;;;17.83;78.45;101008.31;4825027;29;45410;-72
2023/07/06 04:28:05;;;;;;;;;7.67;6.67;;;;;17.96;78.85;100998.31;4823876;29;45519;-72
2023/07/06 04:30:36;;;;;;;;;7.00;6.33;;;;;18.07;78.36;101000.84;4825014;29;45507;-73
2023/07/06 04:33:03;;;;;;;;;5.33;4.33;;;;;18.07;78.28;100998.16;4824867;29;45421;-72
2023/07/06 04:35:31;;;;;;;;;7.67;7.00;;;;;18.13;78.89;101000.78;4839291;29;45456;-72
2023/07/06 04:37:59;;;;;;;;;7.33;7.33;;;;;18.23;78.05;101002.44;4823885;29;46014;-73
2023/07/06 04:40:26;;;;;;;;;8.00;6.33;;;;;18.31;77.97;101008.59;4823967;29;45492;-72
2023/07/06 04:42:53;;;;;;;;;5.00;5.00;;;;;18.45;77.35;101007.53;4824326;29;45521;-73
2023/07/06 04:45:21;;;;;;;;;8.33;7.00;;;;;18.49;77.31;101009.28;4823443;29;45741;-73
2023/07/06 04:47:47;;;;;;;;;7.00;7.00;;;;;18.50;77.45;101011.94;4824337;29;45489;-72
2023/07/06 04:50:17;;;;;;;;;7.00;7.00;;;;;18.59;77.78;101006.41;4823795;29;45876;-72
2023/07/06 04:52:45;;;;;;;;;8.00;8.00;;;;;18.63;77.40;101009.06;4807170;29;45715;-73
2023/07/06 04:55:11;;;;;;;;;10.67;8.00;;;;;18.58;77.29;101009.13;4824046;29;45719;-72
2023/07/06 04:57:37;;;;;;;;;8.00;8.00;;;;;18.62;77.03;101004.59;4824224;29;45454;-72
2023/07/06 05:00:13;;;;;;;;;8.00;7.67;;;;;18.72;77.16;101011.59;4826558;29;45781;-73
2023/07/06 05:02:39;;;;;;;;;7.67;7.67;;;;;18.83;76.95;101016.88;4826911;29;45437;-74
2023/07/06 05:05:05;;;;;;;;;10.00;9.33;;;;;18.99;76.42;101011.22;4826063;29;45404;-72
2023/07/06 05:07:32;;;;;;;;;10.33;8.33;;;;;18.97;75.96;101006.78;4823563;29;46306;-73
2023/07/06 05:09:57;;;;;;;;;7.33;7.33;;;;;19.10;76.00;101018.22;4823668;29;45518;-72
2023/07/06 05:12:24;;;;;;;;;7.00;7.00;;;;;19.20;75.88;101022.56;4823883;29;45504;-72
2023/07/06 05:14:52;;;;;;;;;8.67;8.67;;;;;19.31;75.14;101025.06;4822342;29;45410;-73
2023/07/06 05:17:17;;;;;;;;;8.33;8.00;;;;;19.40;74.90;101022.19;4823307;29;45797;-73
2023/07/06 05:19:42;;;;;;;;;8.00;6.33;;;;;19.46;74.83;101023.91;4806849;29;45994;-73
2023/07/06 05:22:08;;;;;;;;;8.33;8.33;;;;;19.53;74.60;101028.25;4824008;29;45907;-73
2023/07/06 05:24:34;;;;;;;;;9.33;8.33;;;;;19.62;74.02;101021.81;4822704;29;45409;-73
2023/07/06 05:26:59;;;;;;;;;9.33;6.00;;;;;19.70;73.41;101025.25;4824428;29;45422;-72
2023/07/06 05:32:48;;;;;;;;;12.00;8.33;;;;;19.82;73.04;101025.06;4823231;29;45506;-73
2023/07/06 05:35:15;;;;;;;;;6.67;6.67;;;;;19.83;72.62;101020.53;4823345;29;45350;-73
2023/07/06 05:37:41;;;;;;;;;6.67;6.00;;;;;19.94;72.45;101024.81;4823331;29;46332;-73
2023/07/06 05:40:08;;;;;;;;;9.00;9.00;;;;;20.05;72.16;101021.88;4821468;29;45479;-74
2023/07/06 05:42:34;;;;;;;;;6.00;6.00;;;;;20.21;71.48;101032.38;4823021;29;45589;-73
2023/07/06 05:45:00;;;;;;;;;8.00;8.00;;;;;20.18;71.42;101023.41;4824060;29;45456;-72
2023/07/06 05:47:26;;;;;;;;;9.00;9.00;;;;;20.23;71.27;101022.41;4823734;29;46100;-73
2023/07/06 05:49:58;;;;;;;;;8.33;8.00;;;;;20.42;70.64;101026.50;4823481;29;45436;-73
2023/07/06 05:52:23;;;;;;;;;10.33;9.67;;;;;20.40;70.29;101033.75;4823018;29;45775;-73
2023/07/06 05:54:49;;;;;;;;;8.33;8.33;;;;;20.53;69.71;101032.53;4823917;29;45443;-72
2023/07/06 05:57:17;;;;;;;;;11.00;10.33;;;;;20.66;69.45;101026.88;4824464;29;45964;-73
2023/07/06 05:59:43;;;;;;;;;7.33;7.33;;;;;20.77;69.22;101028.44;4806189;29;45324;-72
2023/07/06 06:02:12;;;;;;;;;9.00;7.67;;;;;20.95;68.70;101024.41;4822978;29;45340;-73
2023/07/06 06:04:41;;;;;;;;;9.00;8.00;;;;;21.11;67.98;101021.31;4823666;29;45541;-72
2023/07/06 06:07:07;;;;;;;;;12.00;8.67;;;;;21.18;67.60;101017.53;4825018;29;46195;-72
2023/07/06 06:09:33;;;;;;;;;7.33;7.33;;;;;21.31;66.93;101024.41;4826606;29;44785;-72
2023/07/06 06:11:59;;;;;;;;;8.67;8.67;;;;;21.34;66.07;101020.72;4808537;29;45549;-73
2023/07/06 06:14:24;;;;;;;;;5.33;5.33;;;;;21.42;65.57;101026.81;4825242;29;45418;-73
2023/07/06 06:16:51;;;;;;;;;11.00;9.00;;;;;21.58;64.48;101032.75;4822943;29;45966;-73
2023/07/06 06:19:17;;;;;;;;;5.67;5.67;;;;;21.50;64.22;101029.34;4822808;29;45837;-72
2023/07/06 06:21:43;;;;;;;;;9.00;9.00;;;;;21.65;64.26;101044.28;4823507;29;45433;-73
2023/07/06 06:24:09;;;;;;;;;9.33;7.67;;;;;21.71;63.97;101039.63;4823474;29;45571;-73
2023/07/06 06:26:36;;;;;;;;;9.33;7.00;;;;;21.85;63.79;101043.75;4822009;29;46262;-73
2023/07/06 06:29:03;;;;;;;;;6.67;6.67;;;;;21.94;63.88;101041.66;4822842;29;45406;-73
2023/07/06 06:31:29;;;;;;;;;6.00;6.00;;;;;21.99;63.45;101041.53;4805717;29;45472;-74
2023/07/06 06:33:55;;;;;;;;;5.67;5.67;;;;;22.10;62.54;101039.41;4822579;29;45501;-73
2023/07/06 06:36:22;;;;;;;;;6.00;6.00;;;;;22.18;62.14;101039.19;4821162;29;45928;-73
2023/07/06 06:38:48;;;;;;;;;6.33;6.00;;;;;22.32;62.02;101041.53;4806203;29;45358;-73
2023/07/06 06:41:18;;;;;;;;;7.00;7.00;;;;;22.43;61.83;101028.53;4823123;29;45472;-73
2023/07/06 06:43:50;;;;;;;;;7.00;6.00;;;;;22.48;61.58;101045.56;4822169;29;45483;-73
2023/07/06 06:46:16;;;;;;;;;8.00;8.00;;;;;22.60;60.87;101043.38;4824285;29;45352;-73
2023/07/06 06:48:42;;;;;;;;;7.33;7.33;;;;;22.61;60.12;101042.47;4806194;29;45488;-73
2023/07/06 06:51:12;;;;;;;;;8.00;7.00;;;;;22.74;60.06;101043.84;4806782;29;45546;-73
2023/07/06 06:53:39;;;;;;;;;7.00;7.00;;;;;22.71;59.57;101047.53;4805656;29;45773;-72
2023/07/06 06:56:09;;;;;;;;;6.33;6.00;;;;;22.76;59.14;101052.81;4823339;29;45841;-73
2023/07/06 06:58:37;;;;;;;;;7.67;7.67;;;;;22.79;58.46;101051.84;4805823;29;45801;-72
2023/07/06 07:01:06;;;;;;;;;4.33;4.33;;;;;22.76;58.90;101047.38;4805698;29;45422;-73
2023/07/06 07:03:33;;;;;;;;;10.33;9.00;;;;;22.91;59.54;101052.34;4838531;29;45837;-72
2023/07/06 07:06:11;;;;;;;;;6.33;5.33;;;;;23.10;58.16;101058.06;4840987;29;45583;-73
2023/07/06 07:08:49;;;;;;;;;6.00;6.00;;;;;23.09;57.97;101055.44;4811436;29;45386;-74
2023/07/06 07:11:20;;;;;;;;;4.67;4.67;;;;;23.13;58.05;101057.97;4840385;29;45384;-73
2023/07/06 07:13:48;;;;;;;;;8.67;6.00;;;;;23.18;57.67;101052.38;4846022;29;45517;-72
2023/07/06 07:16:14;;;;;;;;;6.33;6.00;;;;;23.32;57.33;101055.53;4848769;29;45372;-73
2023/07/06 07:18:45;;;;;;;;;5.33;5.33;;;;;23.47;56.29;101055.94;4829210;29;46165;-74
2023/07/06 07:21:12;;;;;;;;;6.00;5.67;;;;;23.32;55.97;101050.09;4848056;29;45508;-73
2023/07/06 07:23:49;;;;;;;;;5.67;5.67;;;;;23.28;55.24;101055.69;4848668;29;45549;-73
2023/07/06 07:26:35;;;;;;;;;8.00;8.00;;;;;23.16;56.28;101051.56;4831766;29;46207;-73
2023/07/06 07:29:02;;;;;;;;;7.00;6.00;;;;;23.09;55.77;101055.44;4840433;29;45441;-75
2023/07/06 07:31:29;;;;;;;;;6.33;6.00;;;;;23.13;55.97;101046.25;4837893;29;45424;-73
2023/07/06 07:33:54;;;;;;;;;7.00;5.67;;;;;23.18;56.68;101044.25;4824120;29;45753;-75
2023/07/06 07:36:23;;;;;;;;;7.00;3.67;;;;;23.43;56.41;101044.31;4840543;29;46585;-74
2023/07/06 07:38:51;;;;;;;;;4.00;4.00;;;;;23.48;56.11;101045.03;4819691;29;45382;-76
2023/07/06 07:41:18;;;;;;;;;5.67;5.00;;;;;23.54;55.70;101044.81;4825596;29;45456;-73
2023/07/06 07:43:46;;;;;;;;;9.00;8.33;;;;;23.48;53.70;101046.88;4831456;29;45509;-74
2023/07/06 07:46:16;;;;;;;;;8.00;8.00;;;;;23.43;54.08;101043.41;4838605;29;46160;-73
2023/07/06 07:48:47;;;;;;;;;9.00;7.00;;;;;23.30;54.70;101049.25;4830403;29;45896;-74
2023/07/06 07:51:26;;;;;;;;;9.00;9.00;;;;;23.29;54.28;101036.66;4821873;29;45508;-72
2023/07/06 07:53:54;;;;;;;;;5.67;4.67;;;;;23.31;54.83;101045.63;4830627;29;45601;-74
2023/07/06 07:56:22;;;;;;;;;9.67;7.00;;;;;23.46;55.26;101043.31;4839916;29;47769;-74
2023/07/06 07:58:48;;;;;;;;;7.67;6.00;;;;;23.63;54.78;101043.63;4841407;29;45512;-74
2023/07/06 08:01:35;;;;;;;;;7.33;7.33;;;;;23.90;55.32;101040.88;4839303;29;45347;-75
2023/07/06 08:04:07;;;;;;;;;7.00;7.00;;;;;24.02;54.11;101036.84;4826553;29;45608;-74
2023/07/06 08:06:34;;;;;;;;;7.33;7.00;;;;;23.98;53.72;101030.63;4841452;29;47914;-74
2023/07/06 08:09:14;;;;;;;;;7.00;6.67;;;;;24.02;53.18;101037.72;4824311;29;45397;-74
2023/07/06 08:11:46;;;;;;;;;7.67;7.67;;;;;24.04;54.00;101035.81;4843882;29;45505;-74
2023/07/06 08:14:12;;;;;;;;;8.00;8.00;;;;;24.03;52.70;101034.03;4833951;29;45463;-74
2023/07/06 08:16:41;;;;;;;;;8.00;6.00;;;;;24.13;53.68;101035.47;4844717;29;48199;-75
2023/07/06 08:19:07;;;;;;;;;6.67;6.33;;;;;24.05;52.51;101021.28;4845164;29;45464;-74
2023/07/06 08:21:34;;;;;;;;;10.00;9.00;;;;;24.03;52.46;101033.16;4816244;29;45837;-74
2023/07/06 08:24:00;;;;;;;;;11.33;10.00;;;;;24.03;52.74;101020.44;4818772;29;45625;-74
2023/07/06 08:26:29;;;;;;;;;9.00;9.00;;;;;24.11;53.70;101034.63;4822287;29;47098;-74
2023/07/06 08:28:55;;;;;;;;;10.33;7.67;;;;;24.32;53.38;101027.50;4820818;29;44839;-75
2023/07/06 08:31:21;;;;;;;;;10.00;9.67;;;;;24.49;52.58;101015.97;4816417;29;44893;-74
2023/07/06 08:33:47;;;;;;;;;10.67;10.67;;;;;24.48;52.96;101014.22;4846145;29;45442;-74
2023/07/06 08:36:22;;;;;;;;;8.33;8.33;;;;;24.65;52.18;101012.69;4833142;29;45250;-75
2023/07/06 08:38:48;;;;;;;;;10.33;10.00;;;;;24.64;51.51;101006.38;4846174;29;45821;-78
2023/07/06 08:41:40;;;;;;;;;10.00;10.00;;;;;24.82;51.62;101012.88;4820914;29;45383;-75
2023/07/06 08:44:10;;;;;;;;;8.33;8.33;;;;;24.88;52.54;101007.16;4838882;29;45498;-74
2023/07/06 08:46:42;;;;;;;;;9.00;8.33;;;;;25.05;52.31;101011.94;4823233;29;46709;-73
2023/07/06 08:49:38;;;;;;;;;6.00;6.00;;;;;25.32;51.78;101017.19;4830549;29;45431;-74
2023/07/06 08:52:05;;;;;;;;;8.00;8.00;;;;;25.30;50.18;101013.63;4824155;29;45372;-73
2023/07/06 08:54:36;;;;;;;;;8.00;8.00;;;;;25.34;50.36;101018.00;4838915;29;45691;-73
2023/07/06 08:57:10;;;;;;;;;5.67;5.00;;;;;25.39;48.48;101015.06;4843004;29;45917;-73
2023/07/06 08:59:40;;;;;;;;;10.00;9.00;;;;;25.35;49.67;101023.38;4824156;29;45593;-73
2023/07/06 09:02:18;;;;;;;;;7.00;7.00;;;;;25.59;49.64;101023.25;4845961;29;45368;-74
2023/07/06 09:04:46;;;;;;;;;6.33;6.33;;;;;25.64;49.00;101023.06;4840195;29;45424;-74
2023/07/06 09:07:15;;;;;;;;;8.67;8.67;;;;;25.67;48.77;101015.66;4830245;29;47508;-74
2023/07/06 09:09:43;;;;;;;;;5.00;5.00;;;;;25.86;48.83;101028.44;4822856;29;44999;-75
2023/07/06 09:15:31;;;;;;;;;6.00;6.00;;;;;25.89;47.43;101026.44;4839776;29;45946;-74
2023/07/06 09:17:59;;;;;;;;;5.33;5.33;;;;;25.72;46.82;101015.44;4835112;29;46697;-74
2023/07/06 09:20:29;;;;;;;;;8.00;6.00;;;;;25.71;47.23;101024.53;4843836;29;45421;-73
2023/07/06 09:22:56;;;;;;;;;8.33;7.00;;;;;25.68;46.47;101014.69;4838671;29;45467;-75
2023/07/06 09:25:49;;;;;;;;;6.00;6.00;;;;;25.80;46.93;101023.28;4837766;29;45433;-74
2023/07/06 09:28:25;;;;;;;;;9.67;8.67;;;;;25.71;46.64;101014.56;4754539;29;46890;-75
2023/07/06 09:31:14;;;;;;;;;10.67;8.33;;;;;25.86;45.45;101023.00;4753101;29;45495;-74
2023/07/06 09:33:45;;;;;;;;;6.00;5.67;;;;;25.94;47.04;101018.97;4754808;29;45535;-75
2023/07/06 09:36:22;;;;;;;;;7.00;7.00;;;;;26.22;47.15;101015.00;4759407;29;45377;-74
2023/07/06 09:38:50;;;;;;;;;7.67;7.33;;;;;26.35;46.59;101009.84;4753617;29;46025;-73
2023/07/06 09:41:27;;;;;;;;;9.33;9.00;;;;;26.72;45.78;101008.06;4753350;29;45591;-75
2023/07/06 09:44:05;;;;;;;;;8.00;8.00;;;;;26.78;45.94;101002.31;4736477;29;45438;-75
2023/07/06 09:46:36;;;;;;;;;9.33;9.33;;;;;26.87;46.06;101004.59;4745574;29;45620;-75
2023/07/06 09:49:20;;;;;;;;;11.00;9.33;;;;;26.86;45.95;101001.94;4738000;30;45427;-73
2023/07/06 09:52:01;;;;;;;;;14.33;12.67;;;;;27.02;45.91;101000.19;4721161;30;45502;-74
2023/07/06 09:54:57;;;;;;;;;9.00;9.00;;;;;27.16;44.55;101002.22;4724777;29;45546;-74
2023/07/06 09:57:27;;;;;;;;;11.00;10.00;;;;;27.22;45.07;101011.97;4723121;30;46199;-73
2023/07/06 09:59:54;;;;;;;;;7.67;7.00;;;;;27.28;43.12;101011.69;4737108;29;46259;-73
2023/07/06 10:02:31;;;;;;;;;8.00;8.00;;;;;27.07;42.36;101000.00;4734850;29;45504;-73
2023/07/06 10:05:07;;;;;;;;;8.00;8.00;;;;;27.04;45.00;101001.00;4773633;29;45408;-74
2023/07/06 10:07:57;;;;;;;;;8.00;7.00;;;;;27.26;43.27;101009.03;4830195;29;45362;-74
2023/07/06 10:11:09;;;;;;;;;7.00;7.00;;;;;27.31;43.89;101006.94;4824484;29;45534;-74
2023/07/06 10:13:47;;;;;;;;;5.00;5.00;;;;;27.37;43.80;101007.59;4821833;29;45444;-76
2023/07/06 10:16:28;;;;;;;;;9.00;7.67;;;;;27.38;44.47;101003.91;4828667;29;45497;-73
2023/07/06 10:19:27;;;;;;;;;2.00;2.00;;;;;27.53;42.16;100994.88;4826603;29;45428;-73
2023/07/06 10:22:20;;;;;;;;;7.00;6.00;;;;;27.23;42.55;100998.28;4822444;29;45380;-74
2023/07/06 10:25:11;;;;;;;;;7.67;7.00;;;;;27.12;44.35;100995.16;4803885;29;44854;-74
2023/07/06 10:27:50;;;;;;;;;10.33;9.00;;;;;27.26;43.87;100997.22;4809521;29;45517;-74
2023/07/06 10:30:26;;;;;;;;;9.00;9.00;;;;;27.40;43.55;100997.38;4819171;29;45587;-74
2023/07/06 10:36:18;;;;;;;;;6.33;6.33;;;;;27.45;41.63;100987.13;4821801;29;45397;-74
2023/07/06 10:38:46;;;;;;;;;4.67;4.67;;;;;27.41;40.50;100990.06;4814172;29;45582;-75
2023/07/06 10:41:12;;;;;;;;;4.33;4.33;;;;;27.40;42.77;101002.84;4830333;29;45416;-75
2023/07/06 10:43:43;;;;;;;;;5.00;5.00;;;;;27.53;41.90;100989.41;4844837;29;48230;-72
2023/07/06 10:46:53;;;;;;;;;4.67;4.67;;;;;27.80;42.04;100995.28;4829463;29;45485;-74
2023/07/06 10:49:22;;;;;;;;;5.67;5.67;;;;;27.83;39.73;100992.34;4792713;29;45491;-74
2023/07/06 10:51:56;;;;;;;;;5.00;4.67;;;;;27.84;40.88;100987.81;4796132;29;45441;-73
2023/07/06 10:54:25;;;;;;;;;5.67;5.67;;;;;27.94;42.00;100989.09;4796391;29;45591;-73
2023/07/06 10:57:01;;;;;;;;;5.67;5.67;;;;;28.12;41.63;100992.66;4795902;29;45369;-73
2023/07/06 10:59:51;;;;;;;;;5.67;5.67;;;;;28.29;42.00;100978.91;4794704;29;45758;-74
2023/07/06 11:02:40;;;;;;;;;7.00;6.33;;;;;28.38;41.43;100974.81;4790146;29;45441;-72
2023/07/06 11:05:25;;;;;;;;;4.67;4.67;;;;;28.39;41.01;100982.03;4792737;29;46235;-73
2023/07/06 11:07:54;;;;;;;;;2.33;2.33;;;;;28.48;41.86;100981.50;4777239;29;45395;-73
2023/07/06 11:10:27;;;;;;;;;5.00;5.00;;;;;28.57;39.14;100971.91;4777763;29;44950;-73
2023/07/06 11:13:04;;;;;;;;;5.00;5.00;;;;;28.59;37.84;100966.38;4794739;29;45601;-74
2023/07/06 11:15:29;;;;;;;;;4.00;4.00;;;;;28.53;39.37;100965.72;4780668;29;46318;-73
2023/07/06 11:17:56;;;;;;;;;5.67;4.67;;;;;28.69;39.72;100970.31;4797056;29;45487;-73
2023/07/06 11:20:26;;;;;;;;;4.67;4.67;;;;;28.67;39.26;100967.66;4786618;29;44897;-73
2023/07/06 11:23:04;;;;;;;;;3.00;3.00;;;;;28.67;37.37;100978.63;4808862;29;45434;-73
2023/07/06 11:25:36;;;;;;;;;2.00;2.00;;;;;28.69;38.74;100970.31;4832839;29;45365;-73
2023/07/06 11:28:07;;;;;;;;;6.00;4.33;;;;;28.56;38.01;100969.25;4833022;29;45401;-73
2023/07/06 11:30:57;;;;;;;;;4.00;4.00;;;;;28.63;38.54;100962.47;4834102;29;45486;-74
2023/07/06 11:33:33;;;;;;;;;7.67;7.00;;;;;28.65;39.38;100958.66;4846913;29;45402;-73
2023/07/06 11:36:22;;;;;;;;;3.00;3.00;;;;;28.75;38.04;100955.41;4865056;29;45371;-73
2023/07/06 11:39:08;;;;;;;;;5.00;5.00;;;;;28.71;38.49;100957.44;4850525;29;45355;-72
2023/07/06 11:42:33;;;;;;;;;4.33;4.33;;;;;28.89;37.86;100953.59;4850916;29;45699;-72
2023/07/06 11:45:32;;;;;;;;;6.00;5.33;;;;;28.94;38.35;100953.31;4841190;29;45430;-72
2023/07/06 11:48:19;;;;;;;;;5.33;5.33;;;;;29.10;36.86;100951.44;4850556;29;45584;-74
2023/07/06 11:50:55;;;;;;;;;5.00;5.00;;;;;29.01;35.70;100948.38;4850837;29;46060;-73
2023/07/06 11:53:44;;;;;;;;;6.00;4.33;;;;;28.92;37.44;100945.22;4850680;29;45411;-74
2023/07/06 11:56:22;;;;;;;;;5.00;5.00;;;;;28.95;36.36;100943.28;4850278;29;45384;-74